Time;durP1;ratioP1;P1;durP2;ratioP2;P2;SDS_P1;SDS_P2;PMS_P1;PMS_P2;Temp;Humidity;BMP_temperature;BMP_pressure;BME280_temperature;BME280_humidity;BME280_pressure;Samples;Min_cycle;Max_cycle;Signal;HPM_P1;HPM_P2
2024/01/20 00:00:04;;;;;;;38.33;19.27;;;0.20;99.90;;;;;;5095638;28;20060;-54
2024/01/20 00:02:31;;;;;;;46.53;20.20;;;0.20;99.90;;;;;;5095596;28;20032;-54
2024/01/20 00:04:57;;;;;;;39.28;17.55;;;0.20;99.90;;;;;;5095691;28;20488;-54
2024/01/20 00:07:23;;;;;;;29.10;16.10;;;0.20;99.90;;;;;;5095404;28;20055;-53
2024/01/20 00:09:49;;;;;;;33.05;17.20;;;0.20;99.90;;;;;;5095572;28;20029;-54
2024/01/20 00:12:14;;;;;;;35.83;18.17;;;0.20;99.90;;;;;;5095531;28;20164;-54
2024/01/20 00:14:40;;;;;;;33.70;16.45;;;0.10;99.90;;;;;;5095399;28;20535;-54
2024/01/20 00:17:06;;;;;;;36.97;17.20;;;0.20;99.90;;;;;;5095223;28;20028;-54
2024/01/20 00:19:32;;;;;;;32.47;17.52;;;0.20;99.90;;;;;;5095594;28;20031;-54
2024/01/20 00:21:58;;;;;;;34.35;18.67;;;0.20;99.90;;;;;;5095928;28;20087;-54
2024/01/20 00:24:23;;;;;;;43.65;21.08;;;0.20;99.90;;;;;;5095500;28;20025;-53
2024/01/20 00:26:51;;;;;;;64.63;29.25;;;0.20;99.90;;;;;;5095433;28;20047;-54
2024/01/20 00:29:16;;;;;;;69.20;29.65;;;0.20;99.90;;;;;;5095471;28;20150;-53
2024/01/20 00:31:42;;;;;;;69.70;29.08;;;0.20;99.90;;;;;;5095357;28;20501;-54
2024/01/20 00:34:08;;;;;;;76.30;32.47;;;0.20;99.90;;;;;;5095393;28;20028;-53
2024/01/20 00:36:34;;;;;;;90.20;37.42;;;0.20;99.90;;;;;;5095370;28;20037;-54
2024/01/20 00:39:00;;;;;;;85.10;35.80;;;0.30;99.90;;;;;;5095290;28;20035;-54
2024/01/20 00:41:25;;;;;;;52.83;26.00;;;0.20;99.90;;;;;;5095370;28;20036;-54
2024/01/20 00:43:52;;;;;;;48.75;23.70;;;0.10;99.90;;;;;;5095087;28;20051;-54
2024/01/20 00:46:18;;;;;;;30.48;17.73;;;0.10;99.90;;;;;;5095233;28;20028;-54
2024/01/20 00:48:44;;;;;;;28.00;14.82;;;0.20;99.90;;;;;;5098387;28;20045;-54
2024/01/20 00:51:10;;;;;;;27.13;15.07;;;0.30;99.90;;;;;;5098025;28;20481;-54
2024/01/20 00:53:35;;;;;;;31.48;16.98;;;0.30;99.90;;;;;;5099084;28;20064;-54
2024/01/20 00:56:01;;;;;;;28.38;15.25;;;0.40;99.90;;;;;;5099008;28;20028;-54
2024/01/20 00:58:27;;;;;;;31.20;15.82;;;0.40;99.90;;;;;;5098858;28;20105;-54
2024/01/20 01:00:53;;;;;;;30.92;17.05;;;0.20;99.90;;;;;;5098926;28;20020;-53
2024/01/20 01:03:19;;;;;;;34.78;18.08;;;0.20;99.90;;;;;;5098909;28;20028;-53
2024/01/20 01:05:45;;;;;;;33.47;18.55;;;0.20;99.90;;;;;;5098761;28;20035;-54
2024/01/20 01:08:11;;;;;;;34.15;17.63;;;0.20;99.90;;;;;;5098688;28;20032;-54
2024/01/20 01:10:37;;;;;;;49.83;23.38;;;0.30;99.90;;;;;;5098759;28;20430;-54
2024/01/20 01:13:03;;;;;;;41.38;20.27;;;0.30;99.90;;;;;;5098547;28;20036;-54
2024/01/20 01:15:30;;;;;;;48.80;24.80;;;0.30;99.90;;;;;;5098795;28;20036;-54
2024/01/20 01:17:56;;;;;;;105.90;41.90;;;0.30;99.90;;;;;;5098318;28;20028;-54
2024/01/20 01:20:22;;;;;;;99.88;41.22;;;0.20;99.90;;;;;;5098524;28;20073;-54
2024/01/20 01:22:50;;;;;;;103.28;42.13;;;0.20;99.90;;;;;;5098506;28;20498;-54
2024/01/20 01:25:16;;;;;;;94.47;40.75;;;0.20;99.90;;;;;;5098519;28;20024;-54
2024/01/20 01:27:43;;;;;;;72.78;33.47;;;0.10;99.90;;;;;;5098278;28;20044;-54
2024/01/20 01:30:10;;;;;;;75.25;34.75;;;0.10;99.90;;;;;;5098400;28;20107;-54
2024/01/20 01:32:36;;;;;;;63.42;30.30;;;0.10;99.90;;;;;;5098376;28;20031;-54
2024/01/20 01:35:03;;;;;;;48.95;26.52;;;0.10;99.90;;;;;;5098518;28;20032;-54
2024/01/20 01:37:29;;;;;;;62.53;29.75;;;0.10;99.90;;;;;;5098203;28;20285;-54
2024/01/20 01:39:54;;;;;;;53.05;26.75;;;0.10;99.90;;;;;;5098297;28;20688;-53
2024/01/20 01:42:20;;;;;;;65.75;32.33;;;0.20;99.90;;;;;;5097946;28;20547;-54
2024/01/20 01:44:46;;;;;;;67.18;33.97;;;0.20;99.90;;;;;;5098169;28;20473;-54
2024/01/20 01:47:12;;;;;;;92.82;42.72;;;0.20;99.90;;;;;;5098024;28;20276;-54
2024/01/20 01:49:38;;;;;;;89.13;40.92;;;0.20;99.90;;;;;;5098010;28;20024;-53
2024/01/20 01:52:05;;;;;;;89.35;40.65;;;0.20;99.90;;;;;;5097971;28;20426;-54
2024/01/20 01:54:31;;;;;;;93.82;43.83;;;0.30;99.90;;;;;;5097954;28;20031;-54
2024/01/20 01:56:59;;;;;;;88.22;39.47;;;0.30;99.90;;;;;;5097820;28;20495;-54
2024/01/20 01:59:28;;;;;;;85.40;40.42;;;0.30;99.90;;;;;;5097495;28;20102;-54
2024/01/20 02:01:54;;;;;;;92.70;42.88;;;0.30;99.90;;;;;;5097789;28;20024;-54
2024/01/20 02:04:20;;;;;;;106.13;48.67;;;0.30;99.90;;;;;;5097786;28;20133;-54
2024/01/20 02:06:46;;;;;;;99.47;46.38;;;0.30;99.90;;;;;;5097413;28;20359;-54
2024/01/20 02:09:12;;;;;;;86.45;40.95;;;0.10;99.90;;;;;;5097484;28;20030;-53
2024/01/20 02:11:38;;;;;;;90.00;42.67;;;0.20;99.90;;;;;;5097571;28;20032;-54
2024/01/20 02:14:06;;;;;;;86.85;40.85;;;0.20;99.90;;;;;;5097506;28;20063;-54
2024/01/20 02:16:33;;;;;;;96.80;43.63;;;0.10;99.90;;;;;;5097457;28;20067;-54
2024/01/20 02:19:03;;;;;;;105.68;45.75;;;0.10;99.90;;;;;;5097451;28;20424;-54
2024/01/20 02:21:29;;;;;;;94.97;41.92;;;0.10;99.90;;;;;;5097604;28;20039;-54
2024/01/20 02:23:58;;;;;;;97.43;45.67;;;0.10;99.90;;;;;;5097324;28;20016;-54
2024/01/20 02:26:29;;;;;;;72.35;35.03;;;0.00;99.90;;;;;;5097376;28;20107;-54
2024/01/20 02:28:54;;;;;;;66.85;32.55;;;-0.10;99.90;;;;;;5097312;28;20502;-54
2024/01/20 02:31:20;;;;;;;77.38;34.63;;;0.00;99.90;;;;;;5097151;28;20029;-54
2024/01/20 02:33:46;;;;;;;82.22;39.25;;;0.00;99.90;;;;;;5097199;28;20488;-54
2024/01/20 02:36:12;;;;;;;75.35;38.55;;;0.00;99.90;;;;;;5096990;28;20028;-54
2024/01/20 02:38:38;;;;;;;79.47;37.58;;;0.00;99.90;;;;;;5096906;28;20024;-54
2024/01/20 02:41:04;;;;;;;76.78;37.90;;;0.00;99.90;;;;;;5097015;28;20028;-54
2024/01/20 02:43:29;;;;;;;76.45;36.75;;;0.00;99.90;;;;;;5096936;28;20032;-54
2024/01/20 02:45:55;;;;;;;76.63;40.60;;;0.00;99.90;;;;;;5095451;28;20043;-54
2024/01/20 02:48:21;;;;;;;82.03;39.10;;;0.00;99.90;;;;;;5096315;28;20035;-53
2024/01/20 02:50:47;;;;;;;71.32;34.55;;;0.00;99.90;;;;;;5096828;28;20035;-54
2024/01/20 02:53:13;;;;;;;67.07;34.42;;;-0.10;99.90;;;;;;5096972;28;20028;-54
2024/01/20 02:55:39;;;;;;;78.30;37.92;;;-0.10;99.90;;;;;;5096719;28;20024;-54
2024/01/20 02:58:05;;;;;;;76.13;35.88;;;-0.10;99.90;;;;;;5096630;28;20043;-54
2024/01/20 03:00:31;;;;;;;79.70;39.15;;;-0.10;99.90;;;;;;5096493;28;20483;-54
2024/01/20 03:02:56;;;;;;;81.10;39.88;;;-0.10;99.90;;;;;;5096761;28;20031;-54
2024/01/20 03:05:22;;;;;;;81.28;37.70;;;-0.10;99.90;;;;;;5096825;28;20470;-54
2024/01/20 03:07:48;;;;;;;77.65;39.30;;;0.00;99.90;;;;;;5096158;28;20024;-54
2024/01/20 03:10:14;;;;;;;74.28;37.05;;;0.00;99.90;;;;;;5095833;28;20020;-54
2024/01/20 03:12:40;;;;;;;80.25;40.80;;;-0.10;99.90;;;;;;5096610;28;20028;-54
2024/01/20 03:15:07;;;;;;;69.50;34.95;;;-0.10;99.90;;;;;;5096261;28;20126;-54
2024/01/20 03:17:33;;;;;;;64.65;34.10;;;-0.10;99.90;;;;;;5096056;28;20087;-54
2024/01/20 03:19:59;;;;;;;64.32;32.65;;;0.00;99.90;;;;;;5096250;28;20031;-54
2024/01/20 03:22:25;;;;;;;68.38;33.03;;;-0.10;99.90;;;;;;5096435;28;20031;-54
2024/01/20 03:24:50;;;;;;;63.83;33.80;;;-0.10;99.90;;;;;;5096446;28;20016;-53
2024/01/20 03:27:19;;;;;;;63.33;33.80;;;-0.10;99.90;;;;;;5096129;28;20024;-53
2024/01/20 03:29:45;;;;;;;67.18;34.25;;;-0.10;99.90;;;;;;5096064;28;20027;-54
2024/01/20 03:32:12;;;;;;;65.75;33.67;;;-0.10;99.90;;;;;;5095905;28;20390;-54
2024/01/20 03:34:38;;;;;;;68.00;32.75;;;-0.10;99.90;;;;;;5096071;28;20053;-54
2024/01/20 03:37:04;;;;;;;64.13;30.77;;;-0.10;99.90;;;;;;5096006;28;20032;-54
2024/01/20 03:39:30;;;;;;;58.17;29.02;;;-0.20;99.90;;;;;;5095967;28;20032;-54
2024/01/20 03:41:56;;;;;;;49.17;27.38;;;-0.30;99.90;;;;;;5095897;28;20599;-54
2024/01/20 03:44:22;;;;;;;57.35;27.40;;;-0.30;99.90;;;;;;5095827;28;20454;-54
2024/01/20 03:46:48;;;;;;;49.88;24.25;;;-0.30;99.90;;;;;;5095794;28;20043;-53
2024/01/20 03:49:14;;;;;;;42.58;22.92;;;-0.30;99.90;;;;;;5095828;28;20024;-54
2024/01/20 03:51:40;;;;;;;45.95;23.45;;;-0.40;99.90;;;;;;5095824;28;20504;-54
2024/01/20 03:54:05;;;;;;;50.58;25.00;;;-0.40;99.90;;;;;;5095806;28;20032;-54
2024/01/20 03:56:31;;;;;;;45.92;24.67;;;-0.50;99.90;;;;;;5095663;28;20470;-54
2024/01/20 03:58:58;;;;;;;38.47;21.45;;;-0.50;99.90;;;;;;5095649;28;20077;-53
2024/01/20 04:01:24;;;;;;;37.17;19.92;;;-0.50;99.90;;;;;;5095450;28;20028;-54
2024/01/20 04:03:51;;;;;;;37.85;19.10;;;-0.50;99.90;;;;;;5095682;28;20020;-54
2024/01/20 04:06:17;;;;;;;34.22;18.20;;;-0.50;99.90;;;;;;5095546;28;20039;-54
2024/01/20 04:08:43;;;;;;;31.00;16.30;;;-0.60;99.90;;;;;;5095670;28;20115;-54
2024/01/20 04:11:08;;;;;;;33.60;16.88;;;-0.60;99.90;;;;;;5095646;28;20056;-54
2024/01/20 04:13:34;;;;;;;29.25;15.82;;;-0.60;99.90;;;;;;5095501;28;20056;-54
2024/01/20 04:16:00;;;;;;;31.10;15.38;;;-0.70;99.90;;;;;;5095267;28;20033;-54
2024/01/20 04:18:26;;;;;;;33.78;16.73;;;-0.70;99.90;;;;;;5095385;28;20034;-54
2024/01/20 04:20:52;;;;;;;35.05;16.73;;;-0.60;99.90;;;;;;5095558;28;20081;-54
2024/01/20 04:23:18;;;;;;;33.33;17.13;;;-0.60;99.90;;;;;;5099642;28;20050;-53
2024/01/20 04:25:43;;;;;;;47.50;21.45;;;-0.60;99.90;;;;;;5099686;28;20468;-54
2024/01/20 04:28:09;;;;;;;40.08;20.00;;;-0.60;99.90;;;;;;5099820;28;20077;-54
2024/01/20 04:30:35;;;;;;;38.67;18.95;;;-0.60;99.90;;;;;;5099527;28;20034;-54
2024/01/20 04:33:01;;;;;;;45.97;20.92;;;-0.60;99.90;;;;;;5099390;28;20036;-54
2024/01/20 04:35:27;;;;;;;50.17;22.52;;;-0.60;99.90;;;;;;5099516;28;20032;-54
2024/01/20 04:37:53;;;;;;;70.45;29.63;;;-0.60;99.90;;;;;;5099409;28;20503;-54
2024/01/20 04:40:19;;;;;;;65.15;26.73;;;-0.60;99.90;;;;;;5099410;28;20020;-53
2024/01/20 04:42:45;;;;;;;61.13;28.38;;;-0.70;99.90;;;;;;5099257;28;20035;-54
2024/01/20 04:45:13;;;;;;;52.05;25.35;;;-0.60;99.90;;;;;;5099268;28;20016;-54
2024/01/20 04:47:39;;;;;;;50.45;25.83;;;-0.70;99.90;;;;;;5098980;28;20055;-54
2024/01/20 04:50:06;;;;;;;64.88;26.77;;;-0.60;99.90;;;;;;5099122;28;20031;-53
2024/01/20 04:52:31;;;;;;;56.55;27.33;;;-0.60;99.90;;;;;;5099136;28;20485;-54
2024/01/20 04:54:57;;;;;;;61.53;28.33;;;-0.60;99.90;;;;;;5098964;28;20032;-53
2024/01/20 04:57:23;;;;;;;53.42;27.58;;;-0.60;99.90;;;;;;5098841;28;20039;-54
2024/01/20 04:59:49;;;;;;;56.50;25.75;;;-0.60;99.90;;;;;;5099064;28;20059;-54
2024/01/20 05:02:15;;;;;;;49.90;23.40;;;-0.50;99.90;;;;;;5098754;28;20040;-54
2024/01/20 05:04:41;;;;;;;49.75;23.67;;;-0.50;99.90;;;;;;5098779;28;20059;-54
2024/01/20 05:07:07;;;;;;;53.58;25.42;;;-0.50;99.90;;;;;;5098658;28;20050;-54
2024/01/20 05:09:32;;;;;;;61.83;28.50;;;-0.60;99.90;;;;;;5098994;28;20035;-54
2024/01/20 05:11:58;;;;;;;57.50;26.48;;;-0.60;99.90;;;;;;5098668;28;20073;-54
2024/01/20 05:14:24;;;;;;;55.13;25.70;;;-0.60;99.90;;;;;;5098715;28;20020;-54
2024/01/20 05:16:50;;;;;;;63.55;28.92;;;-0.70;99.90;;;;;;5098527;28;20501;-54
2024/01/20 05:19:16;;;;;;;62.63;27.83;;;-0.70;99.90;;;;;;5098643;28;20055;-54
2024/01/20 05:21:42;;;;;;;63.67;29.67;;;-0.70;99.90;;;;;;5098467;28;20024;-53
2024/01/20 05:24:07;;;;;;;60.58;27.02;;;-0.70;99.90;;;;;;5098737;28;20481;-54
2024/01/20 05:26:33;;;;;;;63.35;28.35;;;-0.70;99.90;;;;;;5098392;28;20028;-54
2024/01/20 05:28:59;;;;;;;59.58;27.88;;;-0.70;99.90;;;;;;5098403;28;20024;-53
2024/01/20 05:31:31;;;;;;;54.00;27.45;;;-0.70;99.90;;;;;;5098366;28;20035;-54
2024/01/20 05:33:58;;;;;;;51.85;26.63;;;-0.70;99.90;;;;;;5097844;28;20028;-54
2024/01/20 05:36:23;;;;;;;58.25;28.75;;;-0.60;99.90;;;;;;5098331;28;20052;-53
2024/01/20 05:38:49;;;;;;;56.17;26.92;;;-0.70;99.90;;;;;;5098162;28;20021;-53
2024/01/20 05:41:16;;;;;;;55.22;27.85;;;-0.70;99.90;;;;;;5098150;28;20054;-53
2024/01/20 05:43:42;;;;;;;54.70;28.58;;;-0.60;99.90;;;;;;5098556;28;20084;-54
2024/01/20 05:46:08;;;;;;;55.95;28.17;;;-0.60;99.90;;;;;;5098044;28;20103;-53
2024/01/20 05:48:35;;;;;;;78.75;36.80;;;-0.50;99.90;;;;;;5097811;28;20044;-53
2024/01/20 05:51:01;;;;;;;85.63;38.10;;;-0.50;99.90;;;;;;5098011;28;20023;-53
2024/01/20 05:53:26;;;;;;;56.03;26.77;;;-0.60;99.90;;;;;;5097907;28;20028;-54
2024/01/20 05:55:52;;;;;;;51.65;25.95;;;-0.60;99.90;;;;;;5097872;28;20385;-54
2024/01/20 05:58:18;;;;;;;49.10;25.80;;;-0.60;99.90;;;;;;5097873;28;20032;-54
2024/01/20 06:00:44;;;;;;;58.53;27.65;;;-0.70;99.90;;;;;;5097672;28;20031;-54
2024/01/20 06:03:10;;;;;;;60.50;26.95;;;-0.80;99.90;;;;;;5098069;28;20032;-53
2024/01/20 06:05:35;;;;;;;64.60;30.27;;;-0.70;99.90;;;;;;5097757;28;20032;-53
2024/01/20 06:08:01;;;;;;;61.10;30.80;;;-0.80;99.90;;;;;;5097462;28;20016;-54
2024/01/20 06:10:27;;;;;;;66.60;31.80;;;-0.80;99.90;;;;;;5097608;28;20024;-54
2024/01/20 06:12:53;;;;;;;86.20;39.20;;;-0.90;99.90;;;;;;5097496;28;20028;-53
2024/01/20 06:15:19;;;;;;;69.32;33.00;;;-0.90;99.90;;;;;;5097487;28;20031;-53
2024/01/20 06:17:44;;;;;;;73.28;36.13;;;-0.90;99.90;;;;;;5097384;28;20042;-54
2024/01/20 06:20:11;;;;;;;77.57;37.88;;;-0.90;99.90;;;;;;5097391;28;20063;-54
2024/01/20 06:22:39;;;;;;;85.22;39.80;;;-1.00;99.90;;;;;;5097299;28;20089;-53
2024/01/20 06:25:05;;;;;;;76.35;36.85;;;-1.00;99.90;;;;;;5097326;28;20529;-53
2024/01/20 06:27:31;;;;;;;60.60;29.23;;;-1.10;99.90;;;;;;5097297;28;20378;-54
2024/01/20 06:29:56;;;;;;;56.20;26.67;;;-1.10;99.90;;;;;;5097150;28;20016;-54
2024/01/20 06:32:22;;;;;;;57.38;26.23;;;-1.10;99.90;;;;;;5097206;28;20465;-54
2024/01/20 06:34:48;;;;;;;60.13;30.38;;;-1.10;99.90;;;;;;5097119;28;20032;-54
2024/01/20 06:37:14;;;;;;;70.57;32.38;;;-1.10;99.90;;;;;;5096997;28;20032;-54
2024/01/20 06:39:41;;;;;;;53.22;27.08;;;-1.10;99.90;;;;;;5097045;28;20028;-53
2024/01/20 06:42:09;;;;;;;47.58;25.27;;;-1.10;99.90;;;;;;5096949;28;20034;-54
2024/01/20 06:44:35;;;;;;;56.13;29.00;;;-1.10;99.90;;;;;;5096092;28;20069;-54
2024/01/20 06:47:02;;;;;;;61.72;31.08;;;-1.00;99.90;;;;;;5096660;28;20024;-54
2024/01/20 06:49:28;;;;;;;60.53;28.95;;;-1.00;99.90;;;;;;5096840;28;20038;-54
2024/01/20 06:51:54;;;;;;;68.88;34.13;;;-0.90;99.90;;;;;;5096788;28;20059;-54
2024/01/20 06:54:19;;;;;;;81.55;37.83;;;-1.00;99.90;;;;;;5096801;28;20046;-54
2024/01/20 06:56:45;;;;;;;60.28;29.88;;;-1.00;99.90;;;;;;5096500;28;20161;-53
2024/01/20 06:59:11;;;;;;;48.03;26.52;;;-1.00;99.90;;;;;;5096669;28;20031;-54
2024/01/20 07:01:37;;;;;;;73.75;39.95;;;-1.00;99.90;;;;;;5095266;28;20470;-53
2024/01/20 07:04:03;;;;;;;76.45;38.50;;;-1.00;99.90;;;;;;5096615;28;20043;-54
2024/01/20 07:06:30;;;;;;;74.15;38.67;;;-0.90;99.90;;;;;;5096616;28;20115;-54
2024/01/20 07:08:55;;;;;;;60.85;35.47;;;-1.00;99.90;;;;;;5095138;28;20084;-54
2024/01/20 07:11:24;;;;;;;61.30;30.98;;;-1.00;99.90;;;;;;5096404;28;20063;-53
2024/01/20 07:13:49;;;;;;;55.55;29.48;;;-1.00;99.90;;;;;;5096253;28;20024;-53
2024/01/20 07:16:18;;;;;;;44.78;24.92;;;-1.10;99.90;;;;;;5096455;28;20113;-53
2024/01/20 07:18:44;;;;;;;45.28;25.20;;;-1.10;99.90;;;;;;5096227;28;20478;-54
2024/01/20 07:21:10;;;;;;;43.20;24.58;;;-1.10;99.90;;;;;;5096165;28;20036;-54
2024/01/20 07:23:36;;;;;;;52.58;30.17;;;-1.10;99.90;;;;;;5096172;28;20419;-53
2024/01/20 07:26:02;;;;;;;56.00;28.00;;;-1.10;99.90;;;;;;5096202;28;20103;-53
2024/01/20 07:28:28;;;;;;;44.63;23.30;;;-1.20;99.90;;;;;;5096115;28;20020;-53
2024/01/20 07:30:54;;;;;;;44.53;24.08;;;-1.00;99.90;;;;;;5096118;28;20028;-54
2024/01/20 07:33:20;;;;;;;65.78;34.08;;;-1.10;99.90;;;;;;5096089;28;20031;-54
2024/01/20 07:35:46;;;;;;;57.47;30.67;;;-1.10;99.90;;;;;;5095991;28;20036;-53
2024/01/20 07:38:13;;;;;;;53.95;30.23;;;-0.90;99.90;;;;;;5095929;28;20024;-53
2024/01/20 07:40:39;;;;;;;63.05;32.22;;;-0.80;99.90;;;;;;5095912;28;20035;-54
2024/01/20 07:43:06;;;;;;;66.38;35.80;;;-0.60;99.90;;;;;;5095884;28;20127;-54
2024/01/20 07:45:32;;;;;;;69.05;38.03;;;-0.60;99.90;;;;;;5095866;28;20165;-53
2024/01/20 07:47:58;;;;;;;82.93;42.75;;;-0.60;99.90;;;;;;5095823;28;20031;-53
2024/01/20 07:50:24;;;;;;;88.13;45.45;;;0.20;99.90;;;;;;5095812;28;20064;-54
2024/01/20 07:52:50;;;;;;;66.75;37.83;;;1.00;99.90;;;;;;5095800;28;20032;-54
2024/01/20 07:55:16;;;;;;;69.88;38.13;;;1.50;99.90;;;;;;5095643;28;20032;-54
2024/01/20 07:57:42;;;;;;;67.75;36.20;;;2.10;99.90;;;;;;5095333;28;20029;-54
2024/01/20 08:00:10;;;;;;;66.95;34.33;;;2.00;99.90;;;;;;5095719;28;20036;-54
2024/01/20 08:02:39;;;;;;;65.53;35.13;;;2.70;99.90;;;;;;5095582;28;20043;-54
2024/01/20 08:05:06;;;;;;;66.97;34.40;;;2.90;99.90;;;;;;5095693;28;20367;-54
2024/01/20 08:07:32;;;;;;;64.38;34.00;;;3.10;99.90;;;;;;5095624;28;20281;-54
2024/01/20 08:09:59;;;;;;;68.80;38.33;;;3.60;99.70;;;;;;5095441;28;20028;-54
2024/01/20 08:12:25;;;;;;;78.32;41.38;;;4.60;98.00;;;;;;5095417;28;20043;-54
2024/01/20 08:14:51;;;;;;;73.05;42.10;;;5.60;95.20;;;;;;5095530;28;20028;-54
2024/01/20 08:17:17;;;;;;;69.88;39.28;;;5.80;92.70;;;;;;5095330;28;20024;-54
2024/01/20 08:19:45;;;;;;;68.45;38.50;;;6.50;91.00;;;;;;5095649;28;20020;-54
2024/01/20 08:22:12;;;;;;;75.25;37.88;;;6.70;86.70;;;;;;5095317;28;20036;-54
2024/01/20 08:24:38;;;;;;;69.45;38.65;;;7.20;87.60;;;;;;5095444;28;20124;-54
2024/01/20 08:27:04;;;;;;;67.40;37.83;;;7.20;82.20;;;;;;5095458;28;20055;-54
2024/01/20 08:29:30;;;;;;;72.18;38.42;;;7.70;83.40;;;;;;5095473;28;20228;-54
2024/01/20 08:31:56;;;;;;;74.95;42.35;;;7.70;80.00;;;;;;5095390;28;20028;-54
2024/01/20 08:34:22;;;;;;;72.28;41.97;;;7.40;80.00;;;;;;5095184;28;20036;-54
2024/01/20 08:36:47;;;;;;;83.05;39.70;;;8.20;76.70;;;;;;5095306;28;20020;-54
2024/01/20 08:39:15;;;;;;;79.03;41.47;;;7.70;74.20;;;;;;5095248;28;20032;-54
2024/01/20 08:41:41;;;;;;;73.57;41.05;;;8.10;75.60;;;;;;5095293;28;20044;-54
2024/01/20 08:44:07;;;;;;;65.68;38.00;;;8.20;76.80;;;;;;5095585;28;20024;-54
2024/01/20 08:46:33;;;;;;;79.60;38.80;;;8.60;73.20;;;;;;5095103;28;20557;-54
2024/01/20 08:48:59;;;;;;;79.07;39.45;;;8.90;70.60;;;;;;5095281;28;20028;-54
2024/01/20 08:51:25;;;;;;;69.90;36.30;;;9.30;70.30;;;;;;5095121;28;20020;-54
2024/01/20 08:53:50;;;;;;;68.53;37.17;;;9.00;65.50;;;;;;5095198;28;20429;-54
2024/01/20 08:56:16;;;;;;;53.25;31.23;;;8.40;69.70;;;;;;5095029;28;20027;-54
2024/01/20 08:58:42;;;;;;;54.20;32.58;;;8.40;69.40;;;;;;5095158;28;20027;-54
2024/01/20 09:01:08;;;;;;;57.75;31.95;;;9.00;70.40;;;;;;5095047;28;20024;-54
2024/01/20 09:03:34;;;;;;;50.88;31.00;;;9.50;66.10;;;;;;5095156;28;20024;-54
2024/01/20 09:06:00;;;;;;;46.13;28.60;;;9.40;64.70;;;;;;5095126;28;20020;-54
2024/01/20 09:08:25;;;;;;;75.60;43.97;;;9.40;66.30;;;;;;5095700;28;20397;-54
2024/01/20 09:10:52;;;;;;;56.20;28.48;;;9.60;66.30;;;;;;5098724;28;20028;-54
2024/01/20 09:13:17;;;;;;;48.25;25.58;;;10.10;63.40;;;;;;5098966;28;20031;-54
2024/01/20 09:15:44;;;;;;;36.55;19.00;;;10.60;61.80;;;;;;5098836;28;20070;-54
2024/01/20 09:18:11;;;;;;;35.50;18.98;;;11.30;56.50;;;;;;5098313;28;20048;-54
2024/01/20 09:20:38;;;;;;;45.20;19.02;;;11.10;56.30;;;;;;5098506;28;20138;-54
2024/01/20 09:23:04;;;;;;;27.95;15.48;;;11.70;56.00;;;;;;5098424;28;20085;-54
2024/01/20 09:25:29;;;;;;;31.35;16.70;;;10.60;53.70;;;;;;5098572;28;20024;-54
2024/01/20 09:27:55;;;;;;;42.15;19.00;;;11.00;54.80;;;;;;5098466;28;20035;-54
2024/01/20 09:30:22;;;;;;;28.10;15.77;;;11.50;55.30;;;;;;5098431;28;20028;-54
2024/01/20 09:32:48;;;;;;;37.00;22.65;;;11.20;49.70;;;;;;5098349;28;20062;-54
2024/01/20 09:35:14;;;;;;;26.70;15.15;;;11.80;55.20;;;;;;5098376;28;20024;-54
2024/01/20 09:37:40;;;;;;;23.50;11.65;;;11.20;53.80;;;;;;5098117;28;20057;-54
2024/01/20 09:40:06;;;;;;;26.55;11.57;;;11.30;47.70;;;;;;5097144;28;20028;-55
2024/01/20 09:42:32;;;;;;;26.17;11.43;;;11.80;46.70;;;;;;5098036;28;20465;-55
2024/01/20 09:44:59;;;;;;;25.60;10.20;;;12.10;46.00;;;;;;5098165;28;20028;-54
2024/01/20 09:47:25;;;;;;;23.55;9.40;;;9.90;47.60;;;;;;5098052;28;20023;-55
2024/01/20 09:49:51;;;;;;;14.55;8.38;;;10.10;49.80;;;;;;5098040;28;20458;-54
2024/01/20 09:52:27;;;;;;;18.85;8.13;;;9.10;50.50;;;;;;5097875;28;20028;-55
2024/01/20 09:55:25;;;;;;;24.63;9.40;;;8.00;51.50;;;;;;5098110;28;20032;-54
2024/01/20 09:57:51;;;;;;;25.63;9.70;;;7.30;57.30;;;;;;5097907;28;20043;-54
2024/01/20 10:00:19;;;;;;;17.65;9.18;;;6.90;56.00;;;;;;5097839;28;20032;-54
2024/01/20 10:02:46;;;;;;;20.67;10.80;;;6.00;59.20;;;;;;5097710;28;20109;-54
2024/01/20 10:05:13;;;;;;;23.77;10.02;;;5.70;57.50;;;;;;5098046;28;20491;-54
2024/01/20 10:07:39;;;;;;;33.58;13.40;;;5.80;59.30;;;;;;5097413;28;20108;-54
2024/01/20 10:10:06;;;;;;;17.67;8.48;;;6.20;62.00;;;;;;5097593;28;20458;-54
2024/01/20 10:12:32;;;;;;;18.27;8.13;;;5.40;58.50;;;;;;5097539;28;20051;-54
2024/01/20 10:14:58;;;;;;;14.63;8.20;;;5.10;62.10;;;;;;5097565;28;20488;-54
2024/01/20 10:17:24;;;;;;;17.13;8.55;;;5.10;62.30;;;;;;5097388;28;20034;-54
2024/01/20 10:19:50;;;;;;;19.80;9.13;;;5.90;66.30;;;;;;5097413;28;20062;-54
2024/01/20 10:22:16;;;;;;;26.60;12.40;;;6.40;66.70;;;;;;5097265;28;20039;-54
2024/01/20 10:24:49;;;;;;;25.08;11.38;;;6.50;61.70;;;;;;5097395;28;20111;-54
2024/01/20 10:27:19;;;;;;;17.80;11.20;;;7.60;62.00;;;;;;5097524;28;20024;-54
2024/01/20 10:29:46;;;;;;;29.45;11.70;;;8.20;60.00;;;;;;5097252;28;20081;-54
2024/01/20 10:32:12;;;;;;;18.73;10.43;;;7.00;58.50;;;;;;5097285;28;20024;-54
2024/01/20 10:34:38;;;;;;;23.08;12.32;;;6.70;62.90;;;;;;5097132;28;20028;-54
2024/01/20 10:37:11;;;;;;;26.52;11.00;;;6.30;62.40;;;;;;5097025;28;20101;-54
2024/01/20 10:39:45;;;;;;;21.45;10.80;;;6.20;62.10;;;;;;5097145;28;20511;-54
2024/01/20 10:42:12;;;;;;;18.10;9.98;;;6.30;61.20;;;;;;5097052;28;20028;-54
2024/01/20 10:45:00;;;;;;;27.63;12.57;;;6.50;62.20;;;;;;5097083;28;20020;-54
2024/01/20 10:47:36;;;;;;;21.73;11.02;;;6.90;59.80;;;;;;5096924;28;20028;-54
2024/01/20 10:50:08;;;;;;;20.30;10.73;;;5.80;60.90;;;;;;5097029;28;20066;-54
2024/01/20 10:52:35;;;;;;;28.45;11.95;;;5.40;60.70;;;;;;5096784;28;20055;-54
2024/01/20 10:55:03;;;;;;;25.80;12.00;;;5.10;67.40;;;;;;5096757;28;20039;-54
2024/01/20 10:57:29;;;;;;;23.52;12.52;;;4.60;65.70;;;;;;5096695;28;20477;-54
2024/01/20 10:59:57;;;;;;;29.00;12.75;;;4.30;68.50;;;;;;5096699;28;20035;-54
2024/01/20 11:02:24;;;;;;;36.90;13.75;;;4.30;70.90;;;;;;5096640;28;20526;-54
2024/01/20 11:04:50;;;;;;;34.25;13.95;;;4.30;72.90;;;;;;5096539;28;20021;-54
2024/01/20 11:07:28;;;;;;;26.48;12.82;;;4.80;73.90;;;;;;5096503;28;20547;-54
2024/01/20 11:09:59;;;;;;;26.20;12.25;;;5.90;65.90;;;;;;5096590;28;20024;-54
2024/01/20 11:12:29;;;;;;;21.95;10.25;;;6.40;66.20;;;;;;5096436;28;20024;-54
2024/01/20 11:14:57;;;;;;;23.80;11.02;;;7.60;60.10;;;;;;5096572;28;20465;-54
2024/01/20 11:17:23;;;;;;;19.52;10.57;;;8.10;59.50;;;;;;5096198;28;20034;-54
2024/01/20 11:19:52;;;;;;;23.90;10.10;;;9.10;57.80;;;;;;5096359;28;20024;-54
2024/01/20 11:22:31;;;;;;;16.77;10.25;;;8.90;54.50;;;;;;5096192;28;20040;-54
2024/01/20 11:24:57;;;;;;;20.88;9.55;;;8.70;56.10;;;;;;5096270;28;20030;-54
2024/01/20 11:27:23;;;;;;;16.95;9.98;;;8.90;51.70;;;;;;5096207;28;20529;-54
2024/01/20 11:29:49;;;;;;;15.38;9.32;;;8.90;51.70;;;;;;5096099;28;20024;-54
2024/01/20 11:32:15;;;;;;;19.42;9.32;;;9.60;54.70;;;;;;5095627;28;20086;-54
2024/01/20 11:34:41;;;;;;;27.35;12.30;;;9.70;52.80;;;;;;5096048;28;20028;-54
2024/01/20 11:37:08;;;;;;;26.63;13.80;;;8.90;54.70;;;;;;5095929;28;20112;-54
2024/01/20 11:39:34;;;;;;;24.83;13.48;;;8.30;55.00;;;;;;5096081;28;20036;-54
2024/01/20 11:42:03;;;;;;;24.35;13.85;;;7.90;56.20;;;;;;5095986;28;20082;-54
2024/01/20 11:44:32;;;;;;;35.92;17.17;;;7.10;59.40;;;;;;5095891;28;20038;-54
2024/01/20 11:46:59;;;;;;;36.85;14.82;;;6.30;59.70;;;;;;5095835;28;20119;-54
2024/01/20 11:49:25;;;;;;;31.25;15.05;;;5.90;63.10;;;;;;5095870;28;20036;-54
2024/01/20 11:51:51;;;;;;;29.77;14.88;;;5.70;63.80;;;;;;5095757;28;20039;-54
2024/01/20 11:54:18;;;;;;;22.70;12.93;;;5.60;62.90;;;;;;5095743;28;20481;-54
2024/01/20 11:56:44;;;;;;;26.65;12.52;;;5.50;64.30;;;;;;5095751;28;20040;-54
2024/01/20 11:59:12;;;;;;;21.58;11.05;;;5.40;65.90;;;;;;5095706;28;20028;-54
2024/01/20 12:01:38;;;;;;;26.02;13.75;;;5.50;62.90;;;;;;5095637;28;20028;-54
2024/01/20 12:04:04;;;;;;;20.90;11.18;;;5.20;64.30;;;;;;5095667;28;20485;-54
2024/01/20 12:06:33;;;;;;;21.63;8.85;;;4.90;66.00;;;;;;5096024;28;20438;-54
2024/01/20 12:09:00;;;;;;;19.67;9.60;;;4.90;63.10;;;;;;5095727;28;20028;-54
2024/01/20 12:11:26;;;;;;;24.52;10.48;;;5.20;65.70;;;;;;5095495;28;20176;-54
2024/01/20 12:13:52;;;;;;;23.15;11.27;;;5.00;63.00;;;;;;5095521;28;20456;-54
2024/01/20 12:16:18;;;;;;;22.42;10.80;;;4.80;67.60;;;;;;5095547;28;20016;-54
2024/01/20 12:18:44;;;;;;;16.80;9.13;;;4.70;69.20;;;;;;5095342;28;20039;-54
2024/01/20 12:21:10;;;;;;;23.02;14.15;;;4.70;63.60;;;;;;5095222;28;20039;-54
2024/01/20 12:23:36;;;;;;;25.02;14.02;;;4.90;64.60;;;;;;5095410;28;20123;-54
2024/01/20 12:26:09;;;;;;;25.90;11.30;;;4.70;65.70;;;;;;5095515;28;20023;-54
2024/01/20 12:28:36;;;;;;;22.05;11.57;;;4.70;67.30;;;;;;5095636;28;20024;-54